Time;durP1;ratioP1;P1;durP2;ratioP2;P2;SDS_P1;SDS_P2;PMS_P1;PMS_P2;Temp;Humidity;BMP_temperature;BMP_pressure;BME280_temperature;BME280_humidity;BME280_pressure;Samples;Min_cycle;Max_cycle;Signal;HPM_P1;HPM_P2
2024/01/31 00:01:37;;;;;;;12.55;9.35;;;7.40;67.10;;;;;;5054985;28;20462;-88
2024/01/31 00:04:03;;;;;;;15.82;9.73;;;7.40;67.20;;;;;;5055060;28;20490;-88
2024/01/31 00:06:29;;;;;;;16.20;9.63;;;7.40;67.30;;;;;;5055334;28;20080;-87
2024/01/31 00:08:56;;;;;;;18.65;10.70;;;7.40;67.40;;;;;;5054948;28;20055;-88
2024/01/31 00:11:25;;;;;;;18.52;9.43;;;7.40;67.50;;;;;;5055238;28;20120;-88
2024/01/31 00:13:51;;;;;;;16.65;11.23;;;7.30;67.70;;;;;;5037173;28;20025;-89
2024/01/31 00:16:17;;;;;;;17.63;12.20;;;7.20;67.60;;;;;;5055435;28;20028;-85
2024/01/31 00:18:43;;;;;;;18.00;11.75;;;7.20;67.90;;;;;;5055217;28;20027;-88
2024/01/31 00:21:08;;;;;;;18.90;12.57;;;7.20;67.80;;;;;;5054625;28;20032;-88
2024/01/31 00:23:34;;;;;;;18.23;11.60;;;7.20;67.90;;;;;;5054735;28;20040;-87
2024/01/31 00:25:59;;;;;;;19.65;11.90;;;7.20;68.00;;;;;;5055034;28;20059;-78
2024/01/31 00:28:25;;;;;;;16.67;11.57;;;7.20;67.80;;;;;;5054633;28;20381;-79
2024/01/31 00:30:51;;;;;;;20.98;12.27;;;7.20;67.70;;;;;;5036825;28;20086;-87
2024/01/31 00:33:16;;;;;;;18.33;11.43;;;7.20;67.70;;;;;;5055453;28;20021;-87
2024/01/31 00:35:42;;;;;;;15.38;10.32;;;7.20;67.80;;;;;;5037191;28;20355;-86
2024/01/31 00:38:08;;;;;;;16.80;9.90;;;7.20;68.00;;;;;;5055264;28;20029;-86
2024/01/31 00:40:33;;;;;;;16.73;10.63;;;7.10;68.10;;;;;;5056524;28;20025;-87
2024/01/31 00:42:59;;;;;;;21.77;11.80;;;7.20;68.10;;;;;;5060159;28;20470;-87
2024/01/31 00:45:24;;;;;;;16.33;9.90;;;7.10;68.10;;;;;;5057103;28;20501;-85
2024/01/31 00:47:50;;;;;;;16.77;10.40;;;7.20;68.00;;;;;;5054174;28;20021;-86
2024/01/31 00:50:15;;;;;;;20.42;10.98;;;7.20;67.90;;;;;;5036540;28;20025;-86
2024/01/31 00:52:41;;;;;;;16.77;10.73;;;7.20;67.70;;;;;;5053808;28;20037;-85
2024/01/31 00:55:07;;;;;;;13.68;9.70;;;7.20;67.70;;;;;;5054779;28;20055;-88
2024/01/31 00:57:33;;;;;;;15.20;10.43;;;7.10;68.10;;;;;;5054470;28;20385;-87
2024/01/31 00:59:59;;;;;;;16.70;10.20;;;7.00;68.60;;;;;;5053601;28;20331;-87
2024/01/31 01:02:24;;;;;;;16.88;10.60;;;6.90;68.90;;;;;;5053678;28;20021;-88
2024/01/31 01:04:52;;;;;;;16.52;10.13;;;6.80;69.20;;;;;;5054128;28;20435;-88
2024/01/31 01:07:17;;;;;;;14.90;9.43;;;6.80;69.30;;;;;;5054546;28;20406;-88
2024/01/31 01:09:43;;;;;;;14.05;8.98;;;6.90;69.50;;;;;;5054334;28;20028;-86
2024/01/31 01:12:09;;;;;;;14.30;8.55;;;6.90;69.60;;;;;;5054906;28;20036;-86
2024/01/31 01:14:34;;;;;;;14.70;9.98;;;6.90;69.50;;;;;;5054124;28;20033;-87
2024/01/31 01:17:00;;;;;;;14.40;9.73;;;6.80;69.70;;;;;;5036160;28;20028;-84
2024/01/31 01:19:25;;;;;;;15.75;10.10;;;6.80;69.70;;;;;;5054188;28;20025;-88
2024/01/31 01:21:51;;;;;;;17.17;10.13;;;6.80;69.60;;;;;;5053990;28;20025;-88
2024/01/31 01:24:16;;;;;;;16.13;10.52;;;6.80;69.60;;;;;;5053466;28;20021;-77
2024/01/31 01:26:42;;;;;;;15.93;10.30;;;6.70;69.60;;;;;;5053716;28;20025;-87
2024/01/31 01:29:08;;;;;;;18.00;10.05;;;6.70;69.70;;;;;;5053879;28;20044;-88
2024/01/31 01:31:34;;;;;;;16.35;10.07;;;6.70;69.70;;;;;;5053767;28;20044;-88
2024/01/31 01:34:00;;;;;;;16.30;10.30;;;6.70;69.70;;;;;;5053528;28;20029;-86
2024/01/31 01:36:26;;;;;;;16.00;10.23;;;6.80;69.60;;;;;;5053465;28;20032;-87
2024/01/31 01:38:51;;;;;;;18.00;10.82;;;6.80;69.40;;;;;;5035495;28;20481;-85
2024/01/31 01:41:17;;;;;;;17.25;10.30;;;6.80;70.10;;;;;;5052935;28;20108;-75
2024/01/31 01:43:42;;;;;;;15.75;9.57;;;6.80;69.30;;;;;;5052800;28;20024;-76
2024/01/31 01:46:17;;;;;;;18.67;10.30;;;6.80;69.40;;;;;;5052527;28;20025;-77
2024/01/31 01:48:43;;;;;;;13.27;8.68;;;6.80;69.50;;;;;;5034551;28;20025;-75
2024/01/31 01:51:10;;;;;;;16.48;10.23;;;6.70;69.30;;;;;;5034348;28;20041;-77
2024/01/31 01:53:36;;;;;;;16.63;10.05;;;6.70;70.30;;;;;;5052150;28;20045;-77
2024/01/31 01:56:07;;;;;;;16.45;8.75;;;6.70;69.50;;;;;;5052583;28;20347;-76
2024/01/31 01:58:33;;;;;;;15.85;9.63;;;6.70;69.60;;;;;;5034907;28;20428;-84
2024/01/31 02:01:00;;;;;;;17.30;10.43;;;6.70;69.70;;;;;;5053302;28;20021;-86
2024/01/31 02:03:29;;;;;;;17.50;10.57;;;6.70;69.80;;;;;;5053188;28;20074;-85
2024/01/31 02:05:57;;;;;;;14.07;8.90;;;6.80;69.80;;;;;;5053202;28;20029;-86
2024/01/31 02:08:23;;;;;;;14.45;8.85;;;6.80;69.70;;;;;;5053291;28;20025;-86
2024/01/31 02:10:49;;;;;;;16.90;9.27;;;6.90;69.80;;;;;;5053020;28;20104;-86
2024/01/31 02:13:14;;;;;;;16.75;9.25;;;6.90;69.80;;;;;;5055870;28;20056;-86
2024/01/31 02:15:53;;;;;;;11.95;8.50;;;6.90;69.50;;;;;;5056377;28;20017;-85
2024/01/31 02:18:19;;;;;;;13.18;8.80;;;6.90;69.50;;;;;;5056733;28;20141;-85
2024/01/31 02:20:45;;;;;;;15.35;9.38;;;7.00;69.20;;;;;;5056283;28;20021;-83
2024/01/31 02:23:10;;;;;;;13.93;8.80;;;7.00;69.20;;;;;;5056404;28;20379;-85
2024/01/31 02:25:36;;;;;;;11.95;8.10;;;7.00;69.30;;;;;;5056902;28;20052;-87
2024/01/31 02:28:02;;;;;;;15.18;7.72;;;7.00;69.20;;;;;;5057823;28;20025;-88
2024/01/31 02:30:27;;;;;;;12.43;7.53;;;7.00;69.60;;;;;;5057471;28;20029;-87
2024/01/31 02:32:54;;;;;;;11.02;6.53;;;6.90;70.00;;;;;;5057414;28;20033;-88
2024/01/31 02:35:19;;;;;;;8.32;5.65;;;6.90;70.30;;;;;;5058577;28;20051;-88
2024/01/31 02:37:45;;;;;;;12.40;6.90;;;6.80;70.60;;;;;;5060180;28;20025;-87
2024/01/31 02:40:11;;;;;;;12.75;6.38;;;6.90;70.90;;;;;;5058672;28;20021;-87
2024/01/31 02:42:36;;;;;;;11.57;6.63;;;6.90;70.70;;;;;;5057959;28;20025;-84
2024/01/31 02:45:02;;;;;;;11.73;7.63;;;6.90;70.70;;;;;;5056244;28;20064;-84
2024/01/31 02:47:28;;;;;;;11.30;7.22;;;6.90;70.60;;;;;;5056876;28;20025;-86
2024/01/31 02:49:53;;;;;;;13.52;7.68;;;6.90;70.50;;;;;;5056475;28;20028;-84
2024/01/31 02:52:19;;;;;;;12.48;7.53;;;7.00;70.60;;;;;;5055724;28;20033;-83
2024/01/31 02:54:44;;;;;;;9.73;6.63;;;6.90;70.80;;;;;;5055646;28;20049;-81
2024/01/31 02:57:10;;;;;;;12.00;7.05;;;7.00;70.90;;;;;;5057552;28;20326;-89
2024/01/31 02:59:35;;;;;;;9.85;6.85;;;6.90;71.00;;;;;;5058819;28;20024;-87
2024/01/31 03:02:02;;;;;;;11.25;7.05;;;6.90;71.20;;;;;;5039091;28;20075;-88
2024/01/31 03:04:28;;;;;;;9.90;6.25;;;7.00;71.10;;;;;;5056301;28;20025;-85
2024/01/31 03:06:53;;;;;;;12.52;6.05;;;7.00;71.40;;;;;;5038235;28;20028;-86
2024/01/31 03:09:21;;;;;;;12.32;6.80;;;7.00;71.20;;;;;;5037859;28;20499;-85
2024/01/31 03:11:47;;;;;;;11.65;6.03;;;7.00;71.20;;;;;;5055686;28;20167;-85
2024/01/31 03:14:12;;;;;;;9.43;6.22;;;7.10;71.20;;;;;;5055763;28;20053;-84
2024/01/31 03:16:39;;;;;;;9.63;5.85;;;7.10;71.10;;;;;;5055328;28;20025;-84
2024/01/31 03:19:05;;;;;;;12.15;6.47;;;7.10;71.10;;;;;;5055507;28;20036;-84
2024/01/31 03:21:31;;;;;;;8.45;5.80;;;7.10;71.20;;;;;;5055423;28;20539;-83
2024/01/31 03:23:56;;;;;;;10.15;5.90;;;7.10;71.10;;;;;;5054332;28;20029;-85
2024/01/31 03:26:22;;;;;;;8.52;5.75;;;7.20;71.10;;;;;;5055486;28;20024;-84
2024/01/31 03:28:48;;;;;;;7.82;5.35;;;7.20;71.20;;;;;;5037081;28;20025;-83
2024/01/31 03:31:13;;;;;;;8.23;6.07;;;7.20;71.10;;;;;;5055113;28;20079;-84
2024/01/31 03:33:39;;;;;;;9.48;5.90;;;7.10;71.00;;;;;;5055303;28;20077;-86
2024/01/31 03:36:05;;;;;;;8.02;5.30;;;7.10;71.10;;;;;;5054312;28;20021;-82
2024/01/31 03:38:30;;;;;;;9.75;6.47;;;7.10;71.30;;;;;;5055275;28;20032;-85
2024/01/31 03:40:56;;;;;;;8.93;6.72;;;7.10;71.20;;;;;;5054796;28;20477;-75
2024/01/31 03:43:21;;;;;;;12.55;7.45;;;7.10;71.20;;;;;;5054193;28;20469;-77
2024/01/31 03:45:47;;;;;;;11.15;7.03;;;7.10;71.20;;;;;;5054167;28;20021;-76
2024/01/31 03:48:12;;;;;;;10.82;7.05;;;7.10;71.20;;;;;;5054156;28;20025;-78
2024/01/31 03:50:38;;;;;;;11.50;7.45;;;7.10;71.20;;;;;;5054022;28;20035;-75
2024/01/31 03:53:04;;;;;;;14.00;7.30;;;7.10;71.10;;;;;;5054431;28;20109;-79
2024/01/31 03:55:29;;;;;;;11.75;7.13;;;7.10;71.00;;;;;;5054190;28;20316;-87
2024/01/31 03:57:55;;;;;;;10.23;7.63;;;7.10;70.90;;;;;;5054511;28;20474;-79
2024/01/31 04:00:20;;;;;;;10.43;6.93;;;7.10;70.90;;;;;;5054057;28;20107;-77
2024/01/31 04:02:46;;;;;;;13.48;7.70;;;7.10;70.90;;;;;;5053924;28;20117;-79
2024/01/31 04:05:11;;;;;;;11.20;7.00;;;7.10;70.90;;;;;;5053955;28;20036;-78
2024/01/31 04:07:37;;;;;;;12.65;7.47;;;7.10;70.90;;;;;;5053879;28;20070;-77
2024/01/31 04:10:03;;;;;;;11.25;7.28;;;7.10;70.90;;;;;;5053868;28;20025;-79
2024/01/31 04:12:29;;;;;;;9.73;6.55;;;7.00;71.00;;;;;;5054465;28;20063;-85
2024/01/31 04:14:54;;;;;;;10.52;6.10;;;7.00;71.30;;;;;;5037063;28;20033;-87
2024/01/31 04:17:21;;;;;;;10.85;6.30;;;7.00;71.50;;;;;;5054975;28;20025;-88
2024/01/31 04:19:48;;;;;;;13.65;6.65;;;7.00;71.70;;;;;;5054980;28;20039;-87
2024/01/31 04:22:15;;;;;;;12.95;8.88;;;6.90;72.00;;;;;;5036123;28;20025;-85
2024/01/31 04:24:42;;;;;;;12.52;9.20;;;6.90;72.10;;;;;;5053967;28;20017;-83
2024/01/31 04:27:07;;;;;;;9.07;6.63;;;6.90;72.40;;;;;;5053920;28;20035;-82
2024/01/31 04:29:33;;;;;;;10.23;6.53;;;6.80;72.40;;;;;;5053788;28;20026;-83
2024/01/31 04:31:59;;;;;;;8.82;6.28;;;6.80;72.50;;;;;;5036029;28;20127;-84
2024/01/31 04:34:25;;;;;;;7.60;5.18;;;6.80;72.90;;;;;;5053598;28;20021;-84
2024/01/31 04:36:50;;;;;;;5.95;4.90;;;6.70;73.40;;;;;;5053562;28;20025;-84
2024/01/31 04:39:16;;;;;;;12.30;5.15;;;6.60;74.40;;;;;;5053580;28;20024;-84
2024/01/31 04:41:43;;;;;;;8.18;5.07;;;6.60;74.90;;;;;;5053339;28;20025;-85
2024/01/31 04:44:08;;;;;;;7.40;4.60;;;6.60;74.90;;;;;;5053591;28;20024;-83
2024/01/31 04:46:36;;;;;;;7.85;5.00;;;6.50;74.90;;;;;;5053739;28;20021;-84
2024/01/31 04:49:01;;;;;;;6.78;4.72;;;6.60;74.90;;;;;;5035932;28;20385;-80
2024/01/31 04:51:27;;;;;;;7.30;4.30;;;6.60;74.90;;;;;;5057895;28;20040;-85
2024/01/31 04:53:52;;;;;;;7.22;4.75;;;6.60;75.10;;;;;;5053494;28;20049;-83
2024/01/31 04:56:18;;;;;;;7.68;4.90;;;6.50;75.40;;;;;;5053721;28;20417;-85
2024/01/31 04:58:44;;;;;;;7.40;4.70;;;6.60;75.50;;;;;;5053777;28;20431;-86
2024/01/31 05:01:09;;;;;;;6.68;4.45;;;6.50;75.80;;;;;;5053612;28;20105;-84
2024/01/31 05:03:35;;;;;;;6.90;4.20;;;6.50;76.80;;;;;;5053575;28;20437;-79
2024/01/31 05:06:01;;;;;;;10.00;5.03;;;6.50;76.10;;;;;;5053111;28;20475;-79
2024/01/31 05:08:28;;;;;;;8.13;4.53;;;6.50;76.10;;;;;;5053412;28;20363;-85
2024/01/31 05:10:54;;;;;;;8.15;5.53;;;6.50;76.20;;;;;;5053453;28;20021;-84
2024/01/31 05:13:20;;;;;;;7.85;5.50;;;6.40;76.50;;;;;;5053137;28;20059;-80
2024/01/31 05:15:45;;;;;;;12.10;6.25;;;6.40;76.70;;;;;;5053379;28;20025;-81
2024/01/31 05:18:11;;;;;;;11.40;7.07;;;6.50;76.40;;;;;;5053153;28;20155;-81
2024/01/31 05:20:37;;;;;;;10.48;6.35;;;6.50;76.30;;;;;;5053107;28;20025;-82
2024/01/31 05:23:03;;;;;;;8.82;5.53;;;6.40;76.30;;;;;;5035110;28;20021;-82
2024/01/31 05:25:29;;;;;;;12.38;5.45;;;6.40;76.70;;;;;;5053813;28;20029;-81
2024/01/31 05:27:54;;;;;;;9.93;4.85;;;6.30;77.50;;;;;;5054555;28;20122;-83
2024/01/31 05:30:20;;;;;;;8.02;5.03;;;6.30;77.80;;;;;;5053071;28;20059;-78
2024/01/31 05:32:46;;;;;;;10.77;4.97;;;6.30;77.80;;;;;;5052677;28;20029;-78
2024/01/31 05:35:12;;;;;;;10.90;4.97;;;6.30;77.80;;;;;;5052498;28;20669;-77
2024/01/31 05:37:38;;;;;;;9.25;4.65;;;6.30;78.70;;;;;;5052621;28;20436;-78
2024/01/31 05:40:04;;;;;;;11.43;4.72;;;6.30;78.20;;;;;;5035085;28;20025;-77
2024/01/31 05:42:30;;;;;;;7.43;4.43;;;6.30;78.20;;;;;;5052474;28;20056;-78
2024/01/31 05:44:56;;;;;;;7.30;5.13;;;6.40;78.10;;;;;;5052449;28;20520;-77
2024/01/31 05:47:22;;;;;;;7.65;4.70;;;6.30;78.10;;;;;;5053949;28;20025;-79
2024/01/31 05:49:48;;;;;;;8.00;5.45;;;6.30;78.00;;;;;;5057047;28;20381;-84
2024/01/31 05:52:13;;;;;;;9.60;5.60;;;6.40;77.40;;;;;;5057034;28;20040;-80
2024/01/31 05:54:39;;;;;;;10.98;6.40;;;6.30;77.00;;;;;;5056747;28;20393;-79
2024/01/31 05:57:06;;;;;;;8.93;6.47;;;6.40;76.80;;;;;;5056664;28;20029;-79
2024/01/31 05:59:32;;;;;;;11.88;7.68;;;6.40;76.70;;;;;;5056754;28;20423;-77
2024/01/31 06:01:58;;;;;;;11.88;7.88;;;6.30;76.00;;;;;;5056655;28;20055;-78
2024/01/31 06:04:24;;;;;;;12.13;7.25;;;6.30;76.10;;;;;;5056646;28;20036;-80
2024/01/31 06:06:49;;;;;;;15.05;7.82;;;6.40;76.00;;;;;;5056760;28;20033;-79
2024/01/31 06:09:15;;;;;;;16.13;7.43;;;6.40;75.80;;;;;;5057685;28;20021;-88
2024/01/31 06:11:41;;;;;;;19.17;8.48;;;6.40;76.60;;;;;;5050060;28;20050;-86
2024/01/31 06:14:06;;;;;;;11.68;7.78;;;6.30;74.90;;;;;;5037638;28;20398;-79
2024/01/31 06:16:33;;;;;;;12.95;7.50;;;6.20;75.80;;;;;;5036138;28;20355;-82
2024/01/31 06:19:02;;;;;;;14.30;9.13;;;6.30;76.20;;;;;;5011948;28;20060;-76
2024/01/31 06:21:27;;;;;;;13.43;9.02;;;6.30;75.90;;;;;;5037085;28;20017;-80
2024/01/31 06:23:55;;;;;;;14.25;9.13;;;6.30;75.70;;;;;;5019416;28;20034;-79
2024/01/31 06:26:21;;;;;;;14.38;9.63;;;6.30;75.60;;;;;;5019391;28;20025;-77
2024/01/31 06:28:48;;;;;;;18.08;9.52;;;6.30;75.40;;;;;;5018950;28;20339;-77
2024/01/31 06:31:24;;;;;;;14.32;8.98;;;6.30;75.20;;;;;;5018680;28;20018;-76
2024/01/31 06:33:49;;;;;;;15.15;8.60;;;6.30;75.30;;;;;;5019204;28;20060;-79
2024/01/31 06:36:15;;;;;;;15.95;8.40;;;6.40;75.60;;;;;;5037156;28;20029;-79
2024/01/31 06:38:40;;;;;;;13.48;8.18;;;6.40;75.70;;;;;;5020187;28;20466;-85
2024/01/31 06:41:06;;;;;;;14.20;8.60;;;6.40;76.10;;;;;;5055460;28;20054;-78
2024/01/31 06:43:31;;;;;;;15.07;8.00;;;6.30;76.40;;;;;;5039126;28;20031;-83
2024/01/31 06:45:57;;;;;;;18.77;8.40;;;6.30;76.30;;;;;;5042245;28;20096;-76
2024/01/31 06:48:24;;;;;;;12.15;8.40;;;6.40;76.20;;;;;;5044092;28;20384;-75
2024/01/31 06:50:50;;;;;;;15.77;7.93;;;6.50;76.80;;;;;;5042217;28;20021;-82
2024/01/31 06:53:15;;;;;;;11.75;7.55;;;6.50;76.00;;;;;;5038739;28;20090;-84
2024/01/31 06:55:41;;;;;;;15.70;7.57;;;6.50;76.10;;;;;;5038244;28;20036;-79
2024/01/31 06:58:07;;;;;;;11.27;7.55;;;6.50;75.70;;;;;;5037837;28;20024;-76
2024/01/31 07:00:32;;;;;;;15.10;8.07;;;6.50;75.90;;;;;;5037691;28;20029;-78
2024/01/31 07:02:59;;;;;;;11.90;8.23;;;6.50;76.00;;;;;;5037800;28;20051;-75
2024/01/31 07:05:24;;;;;;;12.18;8.93;;;6.50;76.10;;;;;;5037545;28;20497;-77
2024/01/31 07:07:50;;;;;;;12.75;8.85;;;6.50;76.20;;;;;;5037970;28;20021;-77
2024/01/31 07:10:16;;;;;;;11.40;8.40;;;6.60;76.10;;;;;;5037591;28;20469;-74
2024/01/31 07:12:41;;;;;;;11.90;8.02;;;6.60;76.00;;;;;;5021401;28;20041;-79
2024/01/31 07:15:07;;;;;;;11.85;7.70;;;6.70;75.90;;;;;;5037928;28;20428;-84
2024/01/31 07:17:34;;;;;;;15.07;8.50;;;6.60;75.80;;;;;;5034032;28;20025;-82
2024/01/31 07:19:59;;;;;;;15.18;8.80;;;6.70;75.60;;;;;;5018455;28;20112;-78
2024/01/31 07:22:25;;;;;;;15.27;8.45;;;6.70;75.50;;;;;;5018944;28;20048;-79
2024/01/31 07:24:50;;;;;;;15.45;9.85;;;6.60;75.50;;;;;;5019408;28;20026;-85
2024/01/31 07:27:16;;;;;;;15.40;10.02;;;6.70;75.60;;;;;;5019250;28;20519;-77
2024/01/31 07:29:48;;;;;;;13.32;7.82;;;6.70;76.00;;;;;;5002403;28;20044;-75
2024/01/31 07:32:17;;;;;;;26.98;12.90;;;6.70;76.20;;;;;;5018818;28;20029;-78
2024/01/31 07:34:42;;;;;;;25.17;13.88;;;6.70;76.20;;;;;;5018439;28;20032;-82
2024/01/31 07:37:08;;;;;;;35.80;15.48;;;6.70;76.30;;;;;;5018572;28;20033;-79
2024/01/31 07:39:33;;;;;;;33.47;15.30;;;6.70;76.40;;;;;;5019771;28;20033;-81
2024/01/31 07:41:59;;;;;;;29.52;14.63;;;6.70;76.40;;;;;;5019300;28;20429;-83
2024/01/31 07:44:24;;;;;;;33.55;14.98;;;6.70;76.30;;;;;;5021552;28;20055;-83
2024/01/31 07:46:50;;;;;;;26.73;15.55;;;6.70;76.10;;;;;;5024953;28;20072;-86
2024/01/31 07:49:16;;;;;;;29.45;14.88;;;6.70;76.20;;;;;;5021461;28;20115;-81
2024/01/31 07:51:43;;;;;;;36.38;13.65;;;6.70;76.20;;;;;;5003728;28;20030;-83
2024/01/31 07:54:09;;;;;;;23.85;13.15;;;6.80;76.40;;;;;;5019786;28;20108;-86
2024/01/31 07:56:35;;;;;;;22.95;12.23;;;6.90;76.40;;;;;;5019858;28;20399;-82
2024/01/31 07:59:02;;;;;;;18.35;9.18;;;7.00;76.20;;;;;;5019736;28;20026;-81
2024/01/31 08:01:28;;;;;;;13.65;8.25;;;7.00;75.80;;;;;;5019918;28;20017;-79
2024/01/31 08:03:53;;;;;;;16.15;8.70;;;7.00;75.60;;;;;;5019492;28;20549;-83
2024/01/31 08:06:19;;;;;;;17.83;8.63;;;7.00;75.50;;;;;;5020790;28;20374;-81
2024/01/31 08:08:45;;;;;;;14.35;8.75;;;7.10;75.50;;;;;;5023234;28;20484;-78
2024/01/31 08:11:11;;;;;;;12.52;8.30;;;7.00;75.40;;;;;;5019064;28;20033;-79
2024/01/31 08:13:39;;;;;;;19.55;7.60;;;7.10;75.40;;;;;;5019028;28;20496;-84
2024/01/31 08:16:12;;;;;;;16.15;7.95;;;7.50;83.60;;;;;;5021429;28;20029;-83
2024/01/31 08:18:37;;;;;;;14.00;8.38;;;7.70;80.90;;;;;;5018969;28;20025;-83
2024/01/31 08:21:05;;;;;;;17.98;7.90;;;7.90;78.40;;;;;;5023674;28;20060;-85
2024/01/31 08:23:31;;;;;;;18.55;9.60;;;8.00;76.00;;;;;;5038853;28;20029;-84
2024/01/31 08:25:58;;;;;;;16.83;10.40;;;8.10;74.20;;;;;;5032793;28;20068;-81
2024/01/31 08:28:24;;;;;;;16.90;9.73;;;8.20;73.40;;;;;;5048204;28;20026;-81
2024/01/31 08:30:50;;;;;;;14.23;10.13;;;8.20;74.20;;;;;;5030323;28;20029;-83
2024/01/31 08:33:15;;;;;;;15.57;9.20;;;8.20;73.60;;;;;;5027929;28;20045;-83
2024/01/31 08:35:41;;;;;;;18.42;10.18;;;8.20;72.60;;;;;;5021997;28;20060;-82
2024/01/31 08:38:08;;;;;;;15.65;9.23;;;8.30;72.40;;;;;;5041801;28;20025;-83
2024/01/31 08:40:33;;;;;;;17.65;8.60;;;8.50;72.00;;;;;;5031203;28;20025;-83
2024/01/31 08:42:59;;;;;;;13.68;8.95;;;8.60;71.40;;;;;;5047540;28;20044;-84
2024/01/31 08:45:25;;;;;;;14.52;8.70;;;8.60;71.00;;;;;;5038972;28;20056;-88
2024/01/31 08:47:51;;;;;;;22.20;9.15;;;8.60;71.60;;;;;;5036420;28;20036;-83
2024/01/31 08:50:22;;;;;;;20.17;9.45;;;8.70;70.50;;;;;;5038595;28;20033;-86
2024/01/31 08:52:48;;;;;;;15.85;9.20;;;8.90;70.50;;;;;;5032375;28;20132;-76
2024/01/31 08:55:14;;;;;;;20.58;10.18;;;8.90;70.30;;;;;;5043079;28;20045;-82
2024/01/31 08:57:42;;;;;;;19.50;8.57;;;8.90;70.10;;;;;;5046305;28;20090;-77
2024/01/31 09:00:10;;;;;;;15.18;8.48;;;8.90;69.70;;;;;;5023769;28;20075;-77
2024/01/31 09:02:35;;;;;;;15.68;8.45;;;9.00;69.70;;;;;;5042437;28;20030;-83
2024/01/31 09:05:01;;;;;;;11.77;7.35;;;9.00;69.50;;;;;;5026213;28;20024;-79
2024/01/31 09:07:26;;;;;;;17.35;7.72;;;9.10;69.30;;;;;;5039809;28;20025;-86
2024/01/31 09:09:53;;;;;;;11.63;7.40;;;9.20;69.00;;;;;;5030747;28;20022;-86
2024/01/31 09:12:19;;;;;;;13.07;7.25;;;9.10;68.90;;;;;;5049081;28;20025;-88
2024/01/31 09:14:45;;;;;;;14.30;8.48;;;9.00;69.00;;;;;;5049196;28;20109;-82
2024/01/31 09:17:10;;;;;;;9.73;7.07;;;9.00;69.40;;;;;;5045740;28;20071;-88
2024/01/31 09:19:36;;;;;;;15.18;7.20;;;9.00;69.70;;;;;;5038709;28;20030;-90
2024/01/31 09:22:02;;;;;;;12.63;7.00;;;9.00;69.80;;;;;;5035262;28;20036;-80
2024/01/31 09:24:27;;;;;;;14.93;7.90;;;9.00;69.80;;;;;;5038064;28;20021;-84
2024/01/31 09:26:53;;;;;;;13.32;7.82;;;9.10;70.00;;;;;;5052567;28;20081;-81
2024/01/31 09:29:18;;;;;;;17.67;7.20;;;9.20;70.00;;;;;;5048267;28;20101;-89
2024/01/31 09:31:44;;;;;;;13.43;8.77;;;9.30;70.00;;;;;;5037817;28;20398;-88
2024/01/31 09:34:10;;;;;;;18.38;10.65;;;9.30;69.90;;;;;;5038580;28;20043;-85
2024/01/31 09:36:35;;;;;;;18.10;11.70;;;9.30;69.70;;;;;;5025413;28;20025;-84
2024/01/31 09:39:03;;;;;;;22.52;13.52;;;9.30;69.80;;;;;;5044990;28;20466;-82
2024/01/31 09:41:28;;;;;;;22.45;13.45;;;9.30;69.90;;;;;;5042107;28;20017;-78
2024/01/31 09:43:55;;;;;;;21.10;13.35;;;9.20;69.90;;;;;;5040489;28;20048;-87
2024/01/31 09:46:22;;;;;;;25.80;17.30;;;9.20;70.00;;;;;;5044110;28;20021;-79
2024/01/31 09:48:48;;;;;;;24.60;16.83;;;9.10;70.20;;;;;;5023269;28;20044;-82
2024/01/31 09:51:14;;;;;;;28.35;16.08;;;9.20;70.30;;;;;;5044564;28;20029;-82
2024/01/31 09:53:44;;;;;;;24.02;14.45;;;9.30;70.10;;;;;;5017369;28;20065;-87
2024/01/31 09:56:10;;;;;;;21.58;12.60;;;9.30;69.90;;;;;;5035707;28;20425;-86
2024/01/31 09:58:36;;;;;;;27.75;14.13;;;9.40;69.50;;;;;;5034698;28;20432;-75
2024/01/31 10:01:03;;;;;;;21.25;13.85;;;9.60;69.20;;;;;;5034181;28;20112;-87
2024/01/31 10:03:29;;;;;;;26.83;15.68;;;9.80;68.50;;;;;;5034271;28;20067;-81
2024/01/31 10:05:54;;;;;;;18.80;11.77;;;10.20;67.70;;;;;;5033808;28;20030;-77
2024/01/31 10:08:20;;;;;;;17.30;10.90;;;10.50;67.30;;;;;;5015829;28;20573;-78
2024/01/31 10:10:45;;;;;;;17.40;10.48;;;10.70;66.10;;;;;;5034068;28;20032;-79
2024/01/31 10:13:11;;;;;;;16.52;10.05;;;11.00;64.40;;;;;;5032849;28;20033;-78
2024/01/31 10:15:36;;;;;;;22.08;10.85;;;11.30;63.60;;;;;;5033512;28;20387;-78
2024/01/31 10:18:03;;;;;;;16.23;10.45;;;11.50;62.50;;;;;;5034449;28;20025;-78
2024/01/31 10:20:30;;;;;;;20.70;11.77;;;11.70;61.60;;;;;;5018148;28;20022;-84
2024/01/31 10:22:57;;;;;;;14.48;9.85;;;11.80;60.90;;;;;;5018997;28;20018;-80
2024/01/31 10:25:25;;;;;;;14.55;9.32;;;11.80;60.70;;;;;;5035713;28;20030;-85
2024/01/31 10:27:52;;;;;;;16.90;10.48;;;11.90;60.50;;;;;;5034276;28;20051;-87
2024/01/31 10:30:18;;;;;;;20.63;9.60;;;11.90;60.20;;;;;;5018837;28;20036;-80
2024/01/31 10:32:45;;;;;;;13.95;8.55;;;11.90;60.30;;;;;;5033474;28;20037;-83
2024/01/31 10:35:11;;;;;;;14.23;8.43;;;11.90;60.80;;;;;;5035065;28;20386;-82
2024/01/31 10:37:37;;;;;;;15.27;8.30;;;12.10;60.50;;;;;;5036538;28;20071;-82
2024/01/31 10:40:09;;;;;;;10.75;7.20;;;12.10;59.60;;;;;;5037083;28;20025;-82
2024/01/31 10:42:35;;;;;;;14.48;6.88;;;12.00;60.10;;;;;;5035515;28;20032;-84
2024/01/31 10:45:02;;;;;;;10.45;7.40;;;12.20;60.20;;;;;;5036881;28;20094;-80
2024/01/31 10:47:28;;;;;;;14.35;7.57;;;12.30;60.00;;;;;;5036626;28;20378;-83
2024/01/31 10:49:54;;;;;;;12.70;7.05;;;12.50;59.60;;;;;;5038223;28;20090;-80
2024/01/31 10:52:22;;;;;;;13.18;6.85;;;12.60;59.40;;;;;;5036760;28;20042;-79
2024/01/31 10:54:54;;;;;;;11.20;7.57;;;12.80;58.80;;;;;;5042766;28;20061;-82
2024/01/31 10:57:21;;;;;;;11.13;7.47;;;13.10;58.40;;;;;;5037730;28;20436;-85
2024/01/31 10:59:51;;;;;;;11.75;7.00;;;13.60;57.10;;;;;;5037813;28;20021;-84
2024/01/31 11:02:18;;;;;;;13.45;6.95;;;14.00;55.90;;;;;;5035899;28;20021;-80
2024/01/31 11:04:44;;;;;;;10.40;7.00;;;14.60;54.60;;;;;;5036149;28;20022;-81
2024/01/31 11:07:20;;;;;;;8.82;6.03;;;15.10;53.30;;;;;;5035879;28;20364;-86
2024/01/31 11:09:48;;;;;;;9.85;6.18;;;15.90;51.30;;;;;;5035333;28;20029;-81
2024/01/31 11:12:15;;;;;;;14.00;5.85;;;16.30;49.10;;;;;;5036529;28;20040;-83
2024/01/31 11:14:46;;;;;;;11.07;5.80;;;16.70;48.10;;;;;;5036957;28;20021;-80
2024/01/31 11:17:18;;;;;;;11.20;5.60;;;17.10;46.70;;;;;;5036362;28;20017;-83
2024/01/31 11:19:55;;;;;;;8.90;5.68;;;17.40;45.70;;;;;;5035325;28;20029;-83
2024/01/31 11:22:21;;;;;;;7.88;5.22;;;17.60;44.90;;;;;;5035003;28;20040;-83
2024/01/31 11:24:50;;;;;;;10.80;6.53;;;17.80;44.90;;;;;;5037971;28;20036;-83
2024/01/31 11:27:17;;;;;;;8.70;4.63;;;18.00;44.10;;;;;;5034888;28;20025;-86
2024/01/31 11:29:46;;;;;;;8.32;4.78;;;18.00;43.90;;;;;;5035410;28;20025;-85
2024/01/31 11:32:15;;;;;;;6.70;4.00;;;18.20;43.60;;;;;;5018413;28;20030;-88
2024/01/31 11:34:42;;;;;;;5.95;4.10;;;18.50;42.80;;;;;;5035079;28;20076;-84
2024/01/31 11:37:09;;;;;;;8.45;4.07;;;18.40;41.70;;;;;;5019040;28;20140;-88
2024/01/31 11:39:35;;;;;;;8.23;3.70;;;18.30;40.70;;;;;;5018194;28;20029;-89
2024/01/31 11:42:01;;;;;;;6.13;3.53;;;17.80;42.10;;;;;;5035487;28;20022;-87
2024/01/31 11:44:29;;;;;;;5.10;3.03;;;17.80;42.20;;;;;;5036561;28;20018;-84
2024/01/31 11:46:55;;;;;;;8.30;3.35;;;17.80;40.50;;;;;;5035382;28;20742;-82
2024/01/31 11:49:22;;;;;;;6.60;3.35;;;17.30;43.70;;;;;;5036465;28;20524;-85
2024/01/31 12:02:04;;;;;;;7.13;3.38;;;17.10;42.40;;;;;;5900278;22;20069;-87
2024/01/31 12:04:29;;;;;;;5.88;3.45;;;17.20;42.20;;;;;;5029476;28;20080;-84
2024/01/31 12:07:03;;;;;;;4.75;3.28;;;16.90;43.20;;;;;;5016977;28;20037;-87
2024/01/31 12:09:29;;;;;;;5.32;3.03;;;17.10;43.40;;;;;;4997853;28;20029;-76
2024/01/31 12:11:55;;;;;;;6.05;3.50;;;17.20;42.40;;;;;;4997091;28;20422;-75
2024/01/31 12:14:20;;;;;;;5.78;3.00;;;17.10;42.70;;;;;;5017391;28;20037;-78
2024/01/31 12:16:46;;;;;;;5.57;3.30;;;17.40;42.00;;;;;;5013108;28;20045;-78
2024/01/31 12:19:18;;;;;;;5.95;3.45;;;17.90;40.70;;;;;;5014225;28;20073;-77
2024/01/31 12:21:44;;;;;;;5.80;3.33;;;18.20;39.90;;;;;;5014555;28;20037;-81
2024/01/31 12:24:10;;;;;;;3.80;3.28;;;18.10;39.90;;;;;;4993508;28;20042;-77
2024/01/31 12:36:57;;;;;;;6.20;3.63;;;17.40;41.80;;;;;;5052907;23;20278;-88
2024/01/31 12:39:23;;;;;;;8.00;4.03;;;17.40;42.20;;;;;;5005231;28;20037;-85
2024/01/31 12:41:48;;;;;;;6.20;3.80;;;17.60;42.00;;;;;;5014702;28;20041;-83
2024/01/31 12:44:14;;;;;;;6.97;4.10;;;17.50;42.20;;;;;;5015651;28;20033;-86
2024/01/31 12:46:40;;;;;;;6.30;3.80;;;17.80;41.40;;;;;;5014574;28;20104;-83
2024/01/31 12:49:06;;;;;;;7.38;4.30;;;18.30;40.40;;;;;;5014532;28;20044;-83
2024/01/31 12:51:31;;;;;;;6.53;4.07;;;18.30;39.90;;;;;;4996912;28;20608;-84
2024/01/31 12:53:57;;;;;;;6.78;3.65;;;18.80;38.70;;;;;;5014209;28;20441;-87
2024/01/31 12:56:22;;;;;;;9.95;4.40;;;18.60;39.30;;;;;;4996840;28;20084;-86
2024/01/31 12:58:48;;;;;;;7.38;4.07;;;18.10;40.50;;;;;;5015174;28;20069;-85
2024/01/31 13:01:17;;;;;;;5.45;3.60;;;18.10;40.50;;;;;;5014881;28;20470;-85